createdAt,value
2022-11-12T00:04:23.747Z,99450.53
2022-11-12T00:09:44.791Z,99426.56
2022-11-12T00:15:06.771Z,99415.38
2022-11-12T00:20:28.025Z,99396.41
2022-11-12T00:25:59.148Z,99413.63
2022-11-12T00:31:20.540Z,99421.31
2022-11-12T00:36:41.555Z,99437.63
2022-11-12T00:42:02.857Z,99424.69
2022-11-12T00:47:24.854Z,99433.22
2022-11-12T00:52:46.187Z,99434.91
2022-11-12T00:58:07.401Z,99434.03
2022-11-12T01:03:28.734Z,99430.63
2022-11-12T01:08:51.148Z,99418.63
2022-11-12T01:14:12.249Z,99400.63
2022-11-12T01:19:33.636Z,99356.00
2022-11-12T01:24:54.751Z,99359.38
2022-11-12T01:30:16.527Z,99401.41
2022-11-12T01:35:37.631Z,99380.66
2022-11-12T01:40:58.701Z,99355.91
2022-11-12T01:46:24.728Z,99371.25
2022-11-12T01:51:50.286Z,99364.31
2022-11-12T01:57:13.163Z,99368.63
2022-11-12T02:02:36.301Z,99383.16
2022-11-12T02:08:00.311Z,99365.94
2022-11-12T02:13:40.458Z,99371.88
2022-11-12T02:19:03.482Z,99345.28
2022-11-12T02:24:24.347Z,99353.06
2022-11-12T02:29:48.695Z,99318.66
2022-11-12T02:35:09.883Z,99322.06
2022-11-12T02:40:31.030Z,99318.63
2022-11-12T02:45:52.163Z,99315.25
2022-11-12T02:51:13.430Z,99319.44
2022-11-12T02:56:35.583Z,99315.25
2022-11-12T03:01:56.667Z,99330.69
2022-11-12T03:07:17.978Z,99309.06
2022-11-12T03:12:38.866Z,99320.16
2022-11-12T03:18:00.424Z,99303.72
2022-11-12T03:23:21.564Z,99298.63
2022-11-12T03:28:42.669Z,99298.63
2022-11-12T03:34:03.908Z,99280.50
2022-11-12T03:39:25.233Z,99274.59
2022-11-12T03:44:46.890Z,99270.22
2022-11-12T03:50:10.349Z,99292.47
2022-11-12T03:55:31.801Z,99289.00
2022-11-12T04:00:53.562Z,99279.50
2022-11-12T04:06:33.049Z,99263.09
2022-11-12T04:11:54.289Z,99229.56
2022-11-12T04:17:50.959Z,99242.41
2022-11-12T04:23:12.197Z,99237.31
2022-11-12T04:28:33.564Z,99220.97
2022-11-12T04:33:54.814Z,99240.72
2022-11-12T04:39:16.049Z,99218.47
2022-11-12T04:44:56.092Z,99242.38
2022-11-12T04:50:19.080Z,99241.50
2022-11-12T04:55:40.375Z,99238.94
2022-11-12T05:01:04.084Z,99227.72
2022-11-12T05:06:44.009Z,99231.19
2022-11-12T05:12:05.433Z,99154.81
2022-11-12T05:17:26.523Z,99207.91
2022-11-12T05:23:04.477Z,99215.63
2022-11-12T05:28:27.340Z,99218.97
2022-11-12T05:33:48.327Z,99184.72
2022-11-12T05:39:09.727Z,99202.75
2022-11-12T05:44:30.860Z,99165.78
2022-11-12T05:49:51.839Z,99225.72
2022-11-12T05:55:13.308Z,99193.78
2022-11-12T06:00:39.006Z,99164.56
2022-11-12T06:06:00.073Z,99199.50
2022-11-12T06:11:21.327Z,99201.16
2022-11-12T06:16:42.352Z,99200.34
2022-11-12T06:22:03.518Z,99188.31
2022-11-12T06:27:24.455Z,99191.50
2022-11-12T06:32:49.805Z,99160.38
2022-11-12T06:38:11.018Z,99157.69
2022-11-12T06:43:33.826Z,99169.44
2022-11-12T06:48:55.140Z,99176.16
2022-11-12T06:54:16.144Z,99152.13
2022-11-12T06:59:37.348Z,99133.25
2022-11-12T07:04:58.699Z,99116.53
2022-11-12T07:10:20.392Z,99126.00
2022-11-12T07:15:48.446Z,99112.47
2022-11-12T07:21:16.177Z,99101.19
2022-11-12T07:26:37.516Z,99096.44
2022-11-12T07:31:58.426Z,99084.09
2022-11-12T07:37:19.859Z,99074.75
2022-11-12T07:42:41.259Z,99064.44
2022-11-12T07:48:02.369Z,99051.53
2022-11-12T07:53:23.400Z,99040.31
2022-11-12T07:58:44.991Z,99049.66
2022-11-12T08:04:09.609Z,99058.44
2022-11-12T08:09:30.764Z,99061.13
2022-11-12T08:14:52.887Z,99032.41
2022-11-12T08:20:14.556Z,99016.31
2022-11-12T08:25:36.490Z,99015.59
2022-11-12T08:30:58.595Z,98995.75
2022-11-12T08:36:19.826Z,98983.75
2022-11-12T08:41:40.808Z,98956.69
2022-11-12T08:47:02.318Z,98947.06
2022-11-12T08:52:23.578Z,98964.53
2022-11-12T08:57:45.322Z,98959.41
2022-11-12T09:03:08.648Z,98928.50
2022-11-12T09:08:30.036Z,98886.09
2022-11-12T09:13:53.565Z,98916.00
2022-11-12T09:19:14.631Z,98922.03
2022-11-12T09:24:36.087Z,98915.91
2022-11-12T09:29:57.286Z,98879.84
2022-11-12T09:35:18.500Z,98881.09
2022-11-12T09:40:51.715Z,98873.78
2022-11-12T09:46:28.564Z,98827.97
2022-11-12T09:52:03.303Z,98830.75
2022-11-12T09:57:24.291Z,98806.84
2022-11-12T10:02:55.550Z,98815.13
2022-11-12T10:08:42.635Z,98809.25
2022-11-12T10:14:25.259Z,98808.25
2022-11-12T10:20:04.906Z,98796.53
2022-11-12T10:25:26.464Z,98796.63
2022-11-12T10:30:48.183Z,98795.69
2022-11-12T10:36:33.576Z,98785.72
2022-11-12T10:42:16.428Z,98766.91
2022-11-12T10:47:43.079Z,98776.59
2022-11-12T10:53:08.023Z,98764.16
2022-11-12T10:58:29.538Z,98751.00
2022-11-12T11:03:58.360Z,98739.56
2022-11-12T11:09:56.735Z,98731.84
2022-11-12T11:15:24.044Z,98697.47
2022-11-12T11:20:58.350Z,98693.13
2022-11-12T11:26:28.311Z,98684.03
2022-11-12T11:32:08.249Z,98666.28
2022-11-12T11:37:31.351Z,98666.16
2022-11-12T11:42:52.924Z,98642.06
2022-11-12T11:48:20.916Z,98646.91
2022-11-12T11:53:57.769Z,98616.22
2022-11-12T11:59:50.965Z,98604.84
2022-11-12T12:05:33.987Z,98593.97
2022-11-12T12:11:18.626Z,98588.06
2022-11-12T12:17:17.597Z,98589.81
2022-11-12T12:22:46.776Z,98574.94
2022-11-12T12:28:10.951Z,98571.97
2022-11-12T12:33:45.782Z,98575.16
2022-11-12T12:39:18.979Z,98551.56
2022-11-12T12:45:03.400Z,98539.31
2022-11-12T12:50:26.376Z,98524.69
2022-11-12T12:55:50.653Z,98511.56
2022-11-12T13:01:29.423Z,98510.41
2022-11-12T13:06:50.267Z,98500.81
2022-11-12T13:12:11.827Z,98480.34
2022-11-12T13:17:45.078Z,98502.19
2022-11-12T13:23:11.228Z,98471.81
2022-11-12T13:28:32.124Z,98468.34
2022-11-12T13:33:53.803Z,98453.91
2022-11-12T13:39:19.025Z,98482.84
2022-11-12T13:44:40.148Z,98453.63
2022-11-12T13:50:02.049Z,98472.34
2022-11-12T13:55:23.520Z,98502.47
2022-11-12T14:01:01.790Z,98507.56
2022-11-12T14:06:35.807Z,98500.59
2022-11-12T14:12:02.986Z,98498.00
2022-11-12T14:17:23.949Z,98499.03
2022-11-12T14:22:46.187Z,98504.97
2022-11-12T14:28:28.876Z,98504.34
2022-11-12T14:33:50.759Z,98504.00
2022-11-12T14:39:12.587Z,98508.22
2022-11-12T14:44:38.431Z,98508.41
2022-11-12T14:49:59.452Z,98509.88
2022-11-12T14:55:30.807Z,98526.28
2022-11-12T15:00:54.519Z,98523.69
2022-11-12T15:06:21.205Z,98483.28
2022-11-12T15:11:42.447Z,98512.03
2022-11-12T15:17:05.743Z,98500.00
2022-11-12T15:22:27.917Z,98481.75
2022-11-12T15:27:50.177Z,98496.00
2022-11-12T15:33:11.310Z,98503.69
2022-11-12T15:38:37.906Z,98501.72
2022-11-12T15:44:00.404Z,98493.69
2022-11-12T15:49:21.717Z,98513.38
2022-11-12T15:54:43.175Z,98517.56
2022-11-12T16:00:13.824Z,98476.09
2022-11-12T16:05:35.096Z,98490.28
2022-11-12T16:10:56.424Z,98467.06
2022-11-12T16:16:18.076Z,98487.34
2022-11-12T16:21:39.843Z,98492.56
2022-11-12T16:27:02.503Z,98517.44
2022-11-12T16:32:23.820Z,98506.28
2022-11-12T16:37:46.536Z,98520.09
2022-11-12T16:43:07.940Z,98511.53
2022-11-12T16:48:29.004Z,98509.78
2022-11-12T16:53:50.162Z,98506.38
2022-11-12T16:59:14.579Z,98471.72
2022-11-12T17:04:35.401Z,98517.59
2022-11-12T17:09:56.956Z,98519.72
2022-11-12T17:15:18.172Z,98520.56
2022-11-12T17:20:39.812Z,98543.13
2022-11-12T17:26:03.089Z,98542.16
2022-11-12T17:31:24.926Z,98553.22
2022-11-12T17:36:46.068Z,98550.97
2022-11-12T17:42:07.192Z,98564.03
2022-11-12T17:47:28.399Z,98543.47
2022-11-12T17:52:49.717Z,98557.34
2022-11-12T17:58:11.363Z,98569.28
2022-11-12T18:03:32.769Z,98571.75
2022-11-12T18:08:56.800Z,98578.69
2022-11-12T18:14:23.577Z,98570.13
2022-11-12T18:19:45.147Z,98566.84
2022-11-12T18:25:07.094Z,98578.25
2022-11-12T18:30:28.192Z,98561.09
2022-11-12T18:35:59.679Z,98566.63
2022-11-12T18:41:25.994Z,98569.53
2022-11-12T18:46:49.732Z,98578.31
2022-11-12T18:52:11.070Z,98545.28
2022-11-12T18:57:32.311Z,98574.31
2022-11-12T19:02:53.391Z,98575.44
2022-11-12T19:08:14.758Z,98576.56
2022-11-12T19:13:36.846Z,98606.94
2022-11-12T19:19:00.668Z,98603.88
2022-11-12T19:24:22.094Z,98626.84
2022-11-12T19:29:43.700Z,98637.78
2022-11-12T19:35:06.670Z,98613.34
2022-11-12T19:40:28.069Z,98637.59
2022-11-12T19:45:49.356Z,98612.88
2022-11-12T19:51:14.201Z,98611.72
2022-11-12T19:56:38.405Z,98634.09
2022-11-12T20:02:03.172Z,98622.03
2022-11-12T20:07:25.263Z,98627.41
2022-11-12T20:12:47.557Z,98627.03
2022-11-12T20:18:10.076Z,98653.03
2022-11-12T20:23:36.633Z,98659.38
2022-11-12T20:28:57.628Z,98654.13
2022-11-12T20:34:19.186Z,98646.63
2022-11-12T20:39:40.240Z,98653.78
2022-11-12T20:45:01.652Z,98646.13
2022-11-12T20:50:22.967Z,98637.19
2022-11-12T20:55:44.113Z,98643.31
2022-11-12T21:01:07.637Z,98644.41
2022-11-12T21:06:29.582Z,98623.34
2022-11-12T21:11:51.056Z,98637.19
2022-11-12T21:17:11.942Z,98624.91
2022-11-12T21:22:33.960Z,98634.69
2022-11-12T21:27:55.003Z,98633.22
2022-11-12T21:33:16.288Z,98650.31
2022-11-12T21:38:37.678Z,98644.03
2022-11-12T21:43:59.022Z,98666.28
2022-11-12T21:49:20.086Z,98680.22
2022-11-12T21:54:41.891Z,98659.31
2022-11-12T22:00:34.595Z,98688.69
2022-11-12T22:05:44.668Z,98692.16
2022-11-12T22:11:08.399Z,98713.78
2022-11-12T22:16:29.945Z,98710.97
2022-11-12T22:21:51.111Z,98717.72
2022-11-12T22:27:12.048Z,98681.22
2022-11-12T22:32:33.340Z,98707.75
2022-11-12T22:37:55.410Z,98714.59
2022-11-12T22:43:16.524Z,98703.75
2022-11-12T22:48:38.186Z,98709.09
2022-11-12T22:54:02.337Z,98714.34
2022-11-12T22:59:23.682Z,98727.53
2022-11-12T23:04:44.936Z,98711.06
2022-11-12T23:10:06.831Z,98724.03
2022-11-12T23:15:31.239Z,98754.97
2022-11-12T23:20:52.260Z,98723.25
2022-11-12T23:26:24.580Z,98727.56
2022-11-12T23:31:45.471Z,98727.41
2022-11-12T23:37:06.843Z,98729.16
2022-11-12T23:42:29.416Z,98719.06
2022-11-12T23:47:50.896Z,98745.47
2022-11-12T23:53:11.870Z,98754.31
2022-11-12T23:58:33.348Z,98754.38
